Time;durP1;ratioP1;P1;durP2;ratioP2;P2;SDS_P1;SDS_P2;PMS_P1;PMS_P2;Temp;Humidity;BMP_temperature;BMP_pressure;BME280_temperature;BME280_humidity;BME280_pressure;Samples;Min_cycle;Max_cycle;Signal;HPM_P1;HPM_P2
2022/05/17 00:01:53;;;;;;;9.52;2.53;;;;;;;14.20;71.29;101926.72;5053881;28;20029;-81
2022/05/17 00:04:19;;;;;;;11.25;3.28;;;;;;;14.18;72.16;101926.72;5034698;28;20389;-81
2022/05/17 00:06:45;;;;;;;9.10;2.97;;;;;;;14.13;72.96;101931.28;4999529;28;20477;-81
2022/05/17 00:09:11;;;;;;;9.05;2.70;;;;;;;14.08;73.07;101921.63;4999920;28;20118;-81
2022/05/17 00:11:36;;;;;;;7.57;2.70;;;;;;;14.06;72.69;101923.44;5034065;28;20037;-80
2022/05/17 00:14:02;;;;;;;8.18;2.50;;;;;;;14.03;72.78;101923.50;5015915;28;20420;-81
2022/05/17 00:16:27;;;;;;;8.77;2.67;;;;;;;14.02;72.30;101927.94;5019418;28;20025;-81
2022/05/17 00:18:53;;;;;;;9.30;2.67;;;;;;;13.98;72.12;101919.13;5030759;28;20079;-81
2022/05/17 00:21:19;;;;;;;7.43;2.60;;;;;;;13.94;72.98;101919.22;5016032;28;20469;-81
2022/05/17 00:23:45;;;;;;;14.77;3.05;;;;;;;13.91;72.71;101912.16;5014108;28;20543;-81
2022/05/17 00:26:11;;;;;;;9.40;2.70;;;;;;;13.90;72.80;101904.22;5015859;28;20038;-81
2022/05/17 00:28:37;;;;;;;10.20;2.95;;;;;;;13.90;72.79;101905.09;4999826;28;20037;-81
2022/05/17 00:31:06;;;;;;;9.15;2.67;;;;;;;13.87;73.29;101902.50;5015593;28;20068;-80
2022/05/17 00:33:33;;;;;;;7.13;2.80;;;;;;;13.85;73.32;101904.28;5015651;28;20546;-81
2022/05/17 00:35:58;;;;;;;12.40;3.20;;;;;;;13.83;73.46;101903.44;5033473;28;20084;-81
2022/05/17 00:38:24;;;;;;;9.32;3.53;;;;;;;13.83;72.21;101898.13;5027154;28;20436;-81
2022/05/17 00:40:50;;;;;;;8.55;3.58;;;;;;;13.84;73.89;101904.31;5015543;28;20037;-81
2022/05/17 00:44:42;;;;;;;10.18;2.95;;;;;;;13.83;73.56;101902.56;5015569;28;20033;-81
2022/05/17 00:46:27;;;;;;;8.88;2.80;;;;;;;13.80;72.70;101915.91;5015292;28;20037;-81
2022/05/17 00:48:54;;;;;;;9.63;3.08;;;;;;;13.79;73.99;101904.38;5029514;28;20041;-81
2022/05/17 00:51:23;;;;;;;8.20;3.05;;;;;;;13.80;74.04;101899.94;5018804;28;20033;-81
2022/05/17 00:53:50;;;;;;;15.07;3.33;;;;;;;13.77;73.30;101892.88;5052998;28;20076;-81
2022/05/17 00:56:20;;;;;;;10.35;3.58;;;;;;;13.78;73.66;101907.97;5034825;28;20386;-81
2022/05/17 00:58:55;;;;;;;7.47;2.75;;;;;;;13.79;73.30;101900.84;5047617;28;20068;-81
2022/05/17 01:01:28;;;;;;;8.50;2.90;;;;;;;13.77;73.88;101909.75;5040011;28;20061;-81
2022/05/17 01:04:08;;;;;;;9.48;3.13;;;;;;;13.77;72.99;101898.22;5015544;28;20145;-81
2022/05/17 01:06:44;;;;;;;10.18;2.90;;;;;;;13.76;73.87;101886.69;5034846;28;20382;-81
2022/05/17 01:09:11;;;;;;;10.63;3.38;;;;;;;13.77;74.23;101896.44;5052617;28;20056;-81
2022/05/17 01:11:36;;;;;;;11.15;3.15;;;;;;;13.77;74.99;101890.22;5052571;28;20429;-81
2022/05/17 01:16:46;;;;;;;6.80;3.05;;;;;;;13.81;75.06;101891.06;5030990;28;20044;-81
2022/05/17 01:19:13;;;;;;;11.75;3.95;;;;;;;13.81;74.84;101888.41;5014819;28;20037;-81
2022/05/17 01:21:39;;;;;;;6.60;3.35;;;;;;;13.83;75.23;101886.59;4998744;28;20025;-81
2022/05/17 01:24:05;;;;;;;8.85;3.60;;;;;;;13.87;75.56;101880.28;5014723;28;20071;-81
2022/05/17 01:26:35;;;;;;;12.98;3.85;;;;;;;13.91;74.84;101885.53;5014968;28;20050;-82
2022/05/17 01:29:01;;;;;;;12.48;3.72;;;;;;;13.95;75.40;101889.91;5014520;28;20393;-81
2022/05/17 01:31:28;;;;;;;13.60;3.83;;;;;;;13.99;75.80;101888.03;4998421;28;20034;-81
2022/05/17 01:33:53;;;;;;;7.63;3.25;;;;;;;14.00;75.11;101897.81;4997969;28;20079;-81
2022/05/17 01:36:22;;;;;;;16.70;4.20;;;;;;;14.04;76.01;101893.28;5014372;28;20026;-81
2022/05/17 01:38:51;;;;;;;11.23;3.85;;;;;;;14.08;75.21;101897.66;4998360;28;20046;-81
2022/05/17 01:41:21;;;;;;;10.38;3.80;;;;;;;14.09;76.23;101900.25;5030365;28;20042;-82
2022/05/17 01:43:50;;;;;;;14.80;4.18;;;;;;;14.12;76.04;101902.91;5030624;28;20029;-81
2022/05/17 01:46:16;;;;;;;12.20;4.57;;;;;;;14.15;75.69;101893.97;5030625;28;20029;-82
2022/05/17 01:48:42;;;;;;;14.65;4.35;;;;;;;14.16;75.77;101903.69;5013902;28;20067;-81
2022/05/17 01:51:09;;;;;;;8.88;3.78;;;;;;;14.18;75.96;101902.75;5031834;28;20042;-81
2022/05/17 01:53:35;;;;;;;13.40;3.83;;;;;;;14.20;75.45;101900.94;5025885;28;20148;-82
2022/05/17 01:56:01;;;;;;;8.90;3.92;;;;;;;14.24;75.28;101895.53;5050241;28;20131;-81
2022/05/17 01:58:27;;;;;;;12.70;4.32;;;;;;;14.28;74.83;101897.25;5054193;28;20032;-81
2022/05/17 02:00:52;;;;;;;11.88;3.88;;;;;;;14.28;75.04;101891.91;5026337;28;20062;-81
2022/05/17 02:03:18;;;;;;;12.40;4.15;;;;;;;14.29;75.35;101897.22;5053694;28;20090;-80
2022/05/17 02:05:44;;;;;;;8.88;3.60;;;;;;;14.33;74.46;101896.25;5055874;28;20040;-80
2022/05/17 02:08:09;;;;;;;10.00;3.90;;;;;;;14.33;74.80;101901.56;5051483;28;20040;-80
2022/05/17 02:10:35;;;;;;;12.52;3.95;;;;;;;14.34;73.88;101902.44;5001315;28;20429;-79
2022/05/17 02:13:01;;;;;;;10.38;3.95;;;;;;;14.36;74.42;101896.16;5016882;28;20047;-79
2022/05/17 02:15:26;;;;;;;13.02;4.50;;;;;;;14.36;74.79;101903.28;5051529;28;20067;-79
2022/05/17 02:17:53;;;;;;;11.40;3.55;;;;;;;14.39;74.39;101897.88;5032339;28;20031;-79
2022/05/17 02:20:20;;;;;;;11.52;4.35;;;;;;;14.38;74.84;101899.69;5036747;28;20039;-79
2022/05/17 02:22:45;;;;;;;13.45;4.30;;;;;;;14.36;74.78;101900.63;5053234;28;20468;-79
2022/05/17 02:25:11;;;;;;;12.88;4.10;;;;;;;14.37;74.73;101900.59;5036782;28;20090;-79
2022/05/17 02:27:38;;;;;;;12.07;4.30;;;;;;;14.36;74.75;101911.28;5052912;28;20098;-79
2022/05/17 02:30:05;;;;;;;12.85;4.28;;;;;;;14.36;75.05;101903.28;5071218;28;20344;-79
2022/05/17 02:32:31;;;;;;;15.65;3.80;;;;;;;14.38;74.35;101898.81;5036817;28;20047;-79
2022/05/17 02:34:57;;;;;;;11.07;4.10;;;;;;;14.38;73.75;101905.00;5071015;28;20127;-79
2022/05/17 02:37:22;;;;;;;11.98;4.25;;;;;;;14.40;74.98;101908.53;5045121;28;20103;-80
2022/05/17 02:39:48;;;;;;;13.65;4.68;;;;;;;14.39;74.47;101905.88;5033220;28;20343;-79
2022/05/17 02:42:13;;;;;;;9.35;4.18;;;;;;;14.40;73.92;101905.00;5033203;28;20037;-79
2022/05/17 02:44:39;;;;;;;12.30;4.53;;;;;;;14.40;73.90;101913.00;5049848;28;20515;-79
2022/05/17 02:47:05;;;;;;;10.68;4.28;;;;;;;14.38;73.77;101912.13;5032614;28;20033;-79
2022/05/17 02:49:31;;;;;;;10.38;4.18;;;;;;;14.38;73.52;101913.00;5032872;28;20048;-79
2022/05/17 02:52:01;;;;;;;18.40;5.13;;;;;;;14.37;74.51;101918.38;5032949;28;20068;-79
2022/05/17 02:54:26;;;;;;;11.82;4.70;;;;;;;14.30;73.88;101922.94;5049309;28;20499;-79
2022/05/17 02:56:52;;;;;;;10.68;4.65;;;;;;;14.27;73.93;101919.47;5049556;28;20174;-79
2022/05/17 02:59:19;;;;;;;11.15;4.30;;;;;;;14.23;74.36;101923.97;5002450;28;20385;-79
2022/05/17 03:01:46;;;;;;;12.85;4.20;;;;;;;14.19;70.91;101923.19;5032684;28;20045;-79
2022/05/17 03:04:13;;;;;;;10.77;4.70;;;;;;;14.16;73.42;101917.88;5015969;28;20044;-79
2022/05/17 03:06:43;;;;;;;12.13;4.00;;;;;;;14.13;73.41;101919.75;5016936;28;20156;-79
2022/05/17 03:09:10;;;;;;;14.98;4.78;;;;;;;14.11;73.36;101921.56;5050630;28;20045;-79
2022/05/17 03:11:38;;;;;;;13.63;4.43;;;;;;;14.09;74.32;101918.03;5000264;28;20048;-79
2022/05/17 03:14:04;;;;;;;13.55;4.10;;;;;;;14.05;74.23;101921.69;5016538;28;20135;-79
2022/05/17 03:16:31;;;;;;;20.48;4.72;;;;;;;14.03;73.61;101927.03;5037008;28;20028;-79
2022/05/17 03:18:58;;;;;;;10.07;3.90;;;;;;;14.01;73.91;101915.53;5070712;28;20028;-79
2022/05/17 03:21:24;;;;;;;11.10;4.50;;;;;;;14.02;74.25;101924.38;5052863;28;20058;-79
2022/05/17 03:23:49;;;;;;;12.38;3.83;;;;;;;14.00;73.52;101918.25;5052499;28;20040;-79
2022/05/17 03:26:15;;;;;;;14.80;4.25;;;;;;;13.96;71.95;101917.41;5035710;28;20043;-79
2022/05/17 03:28:40;;;;;;;9.90;4.28;;;;;;;13.95;74.20;101919.19;5019647;28;20425;-79
2022/05/17 03:31:07;;;;;;;9.73;4.22;;;;;;;13.96;75.85;101920.06;5052460;28;20211;-79
2022/05/17 03:33:35;;;;;;;8.00;4.20;;;;;;;13.91;75.50;101917.47;5070519;28;20047;-79
2022/05/17 03:36:01;;;;;;;9.95;4.30;;;;;;;13.93;75.98;101918.34;5052621;28;20492;-79
2022/05/17 03:38:27;;;;;;;15.70;4.38;;;;;;;13.90;75.75;101921.06;5035634;28;20037;-79
2022/05/17 03:40:54;;;;;;;12.57;4.05;;;;;;;13.88;76.14;101927.31;5052442;28;20116;-79
2022/05/17 03:43:21;;;;;;;14.15;4.00;;;;;;;13.88;75.64;101928.19;5020314;28;20492;-79
2022/05/17 03:45:47;;;;;;;16.15;4.10;;;;;;;13.87;76.26;101928.22;5019811;28;20143;-79
2022/05/17 03:48:13;;;;;;;13.38;4.68;;;;;;;13.86;76.92;101927.34;5036200;28;20428;-79
2022/05/17 03:50:39;;;;;;;13.38;5.10;;;;;;;13.87;77.22;101907.81;5052758;28;20028;-79
2022/05/17 03:53:05;;;;;;;12.80;4.65;;;;;;;13.85;76.41;101909.63;5035884;28;20049;-79
2022/05/17 03:55:31;;;;;;;11.95;4.40;;;;;;;13.85;77.08;101908.75;5053960;28;20550;-79
2022/05/17 03:57:56;;;;;;;13.18;4.68;;;;;;;13.85;76.66;101911.41;5035988;28;20076;-79
2022/05/17 04:00:22;;;;;;;15.38;4.93;;;;;;;13.84;77.99;101910.50;5044752;28;20207;-79
2022/05/17 04:02:48;;;;;;;14.07;4.43;;;;;;;13.85;76.01;101920.28;5073757;28;20037;-80
2022/05/17 04:05:13;;;;;;;10.23;4.10;;;;;;;13.88;76.48;101930.84;5035813;28;20345;-79
2022/05/17 04:07:39;;;;;;;17.23;4.32;;;;;;;13.88;76.08;101916.69;5035976;28;20154;-80
2022/05/17 04:10:11;;;;;;;8.90;3.97;;;;;;;13.93;75.31;101925.44;5019437;28;20029;-79
2022/05/17 04:12:36;;;;;;;12.80;4.63;;;;;;;13.93;75.48;101928.13;5019268;28;20131;-79
2022/05/17 04:15:04;;;;;;;12.68;4.70;;;;;;;13.94;76.04;101928.06;5019083;28;20171;-79
2022/05/17 04:17:31;;;;;;;14.23;4.70;;;;;;;14.00;75.78;101932.44;5048865;28;20049;-79
2022/05/17 04:19:59;;;;;;;10.75;4.50;;;;;;;14.04;76.09;101930.56;5055738;28;20074;-79
2022/05/17 04:22:24;;;;;;;14.80;4.97;;;;;;;14.08;76.77;101937.59;5073643;28;20112;-79
2022/05/17 04:24:53;;;;;;;11.70;4.63;;;;;;;14.11;76.59;101943.75;5055544;28;20593;-79
2022/05/17 04:27:21;;;;;;;10.70;5.15;;;;;;;14.18;76.98;101941.84;5055805;28;20059;-79
2022/05/17 04:29:47;;;;;;;11.30;5.50;;;;;;;14.20;77.77;101948.03;5055872;28;20025;-79
2022/05/17 04:32:13;;;;;;;19.23;5.70;;;;;;;14.22;78.35;101943.56;5055670;28;20120;-79
2022/05/17 04:34:39;;;;;;;13.38;6.13;;;;;;;14.26;77.98;101944.34;5055375;28;20043;-80
2022/05/17 04:37:05;;;;;;;15.38;5.15;;;;;;;14.28;78.07;101939.88;5033525;28;20152;-79
2022/05/17 04:39:31;;;;;;;17.05;5.68;;;;;;;14.34;77.86;101947.75;5035679;28;20043;-79
2022/05/17 04:41:57;;;;;;;16.25;5.70;;;;;;;14.37;77.90;101939.72;5051828;28;20476;-79
2022/05/17 04:44:23;;;;;;;15.40;6.30;;;;;;;14.38;77.85;101939.66;5035614;28;20032;-79
2022/05/17 04:46:49;;;;;;;16.48;5.40;;;;;;;14.46;77.78;101946.63;5051694;28;20376;-80
2022/05/17 04:49:15;;;;;;;19.38;5.80;;;;;;;14.53;77.20;101942.91;5035016;28;20033;-80
2022/05/17 04:51:40;;;;;;;9.63;5.47;;;;;;;14.58;76.56;101949.94;5052678;28;20132;-80
2022/05/17 04:54:06;;;;;;;13.57;5.90;;;;;;;14.62;76.77;101956.09;5051281;28;20053;-79
2022/05/17 04:56:34;;;;;;;14.40;6.82;;;;;;;14.66;76.95;101956.91;5051712;28;20102;-79
2022/05/17 04:59:01;;;;;;;20.48;6.60;;;;;;;14.68;76.44;101953.28;5056233;28;20037;-79
2022/05/17 05:01:26;;;;;;;14.15;5.78;;;;;;;14.75;76.60;101952.25;5040737;28;20041;-80
2022/05/17 05:03:52;;;;;;;15.35;5.53;;;;;;;14.81;75.71;101960.13;5054296;28;20033;-79
2022/05/17 05:06:18;;;;;;;13.18;6.43;;;;;;;14.86;76.18;101954.72;5071602;28;20037;-80
2022/05/17 05:08:44;;;;;;;15.65;6.10;;;;;;;14.92;75.52;101959.88;5054984;28;20037;-80
2022/05/17 05:11:11;;;;;;;14.48;6.75;;;;;;;15.01;75.19;101964.16;5038170;28;20037;-79
2022/05/17 05:13:36;;;;;;;14.60;6.57;;;;;;;15.08;75.00;101962.22;5054526;28;20043;-79
2022/05/17 05:16:02;;;;;;;15.65;6.88;;;;;;;15.14;74.20;101970.97;5071229;28;20137;-79
2022/05/17 05:18:27;;;;;;;15.88;7.15;;;;;;;15.18;74.26;101974.41;5001904;28;20407;-79
2022/05/17 05:21:04;;;;;;;17.23;6.93;;;;;;;15.21;74.75;101977.03;5034679;28;20065;-79
2022/05/17 05:23:30;;;;;;;14.32;6.72;;;;;;;15.24;74.08;101977.84;5034330;28;20028;-79
2022/05/17 05:26:00;;;;;;;17.35;6.55;;;;;;;15.28;73.57;101981.28;5034196;28;20032;-79
2022/05/17 05:28:27;;;;;;;15.02;6.32;;;;;;;15.30;73.57;101983.94;5052442;28;20072;-79
2022/05/17 05:30:57;;;;;;;14.93;7.30;;;;;;;15.33;72.86;101984.75;5052109;28;20056;-79
2022/05/17 05:33:23;;;;;;;14.43;7.53;;;;;;;15.36;72.06;101987.34;5034373;28;20417;-79
2022/05/17 05:35:51;;;;;;;20.95;7.10;;;;;;;15.37;73.87;101986.44;5052191;28;20535;-79
2022/05/17 05:38:16;;;;;;;21.17;7.18;;;;;;;15.42;73.46;101987.19;5049097;28;20048;-79
2022/05/17 05:40:42;;;;;;;14.45;6.90;;;;;;;15.46;73.43;101993.34;5037444;28;20468;-79
2022/05/17 05:43:08;;;;;;;17.60;7.32;;;;;;;15.45;73.23;101991.56;5054010;28;20107;-79
2022/05/17 05:45:34;;;;;;;14.65;7.20;;;;;;;15.49;73.65;101999.47;5037214;28;20090;-79
2022/05/17 05:48:00;;;;;;;14.43;6.75;;;;;;;15.54;74.83;101999.38;5071614;28;20036;-79
2022/05/17 05:50:26;;;;;;;13.02;7.32;;;;;;;15.55;75.23;101994.91;5009627;28;20040;-79
2022/05/17 05:53:02;;;;;;;15.23;6.65;;;;;;;15.57;73.30;101990.41;5013321;28;20081;-78
2022/05/17 05:55:28;;;;;;;16.77;6.53;;;;;;;15.61;73.79;101994.78;5029904;28;20188;-79
2022/05/17 05:57:53;;;;;;;16.15;6.75;;;;;;;15.63;73.80;101998.28;5047389;28;20227;-79
2022/05/17 06:00:20;;;;;;;13.65;5.63;;;;;;;15.70;73.36;101991.88;5019095;28;20052;-79
2022/05/17 06:02:46;;;;;;;20.88;6.45;;;;;;;15.77;73.59;101989.94;5032871;28;20091;-79
2022/05/17 06:05:12;;;;;;;16.17;6.40;;;;;;;15.81;73.88;101994.31;5004824;28;20041;-79
2022/05/17 06:07:37;;;;;;;15.60;6.45;;;;;;;15.85;73.64;101991.53;5013612;28;20057;-79
2022/05/17 06:10:06;;;;;;;19.67;6.68;;;;;;;15.89;73.58;101997.66;5013725;28;20080;-78
2022/05/17 06:12:31;;;;;;;20.40;5.57;;;;;;;15.90;73.22;101996.75;5030166;28;20215;-79
2022/05/17 06:14:57;;;;;;;14.80;6.32;;;;;;;15.94;72.43;102001.09;4997598;28;20235;-79
2022/05/17 06:17:27;;;;;;;14.73;6.05;;;;;;;15.98;73.30;101997.44;5014035;28;20068;-79
2022/05/17 06:19:54;;;;;;;12.50;5.20;;;;;;;16.00;71.85;102005.38;5033340;28;20033;-78
2022/05/17 06:22:20;;;;;;;18.27;5.38;;;;;;;16.01;72.20;102012.50;5017042;28;20124;-79
2022/05/17 06:24:45;;;;;;;11.52;4.97;;;;;;;15.99;71.50;102003.63;5016635;28;20116;-80
2022/05/17 06:27:11;;;;;;;18.30;5.40;;;;;;;16.00;71.89;102005.38;5023376;28;20528;-80
2022/05/17 06:29:36;;;;;;;13.93;5.60;;;;;;;16.05;72.36;102012.38;5031022;28;20140;-80
2022/05/17 06:32:02;;;;;;;18.15;5.35;;;;;;;16.12;72.35;102007.72;5029853;28;20060;-80
2022/05/17 06:34:28;;;;;;;21.23;4.95;;;;;;;16.18;71.38;102010.25;5012811;28;20037;-80
2022/05/17 06:36:53;;;;;;;18.40;6.53;;;;;;;16.18;71.00;102012.94;5016961;28;20064;-80
2022/05/17 06:39:19;;;;;;;11.45;5.43;;;;;;;16.19;71.19;102001.31;5049790;28;20124;-80
2022/05/17 06:41:47;;;;;;;15.65;5.80;;;;;;;16.21;70.54;102011.97;5033060;28;20171;-79
2022/05/17 06:44:13;;;;;;;16.00;5.88;;;;;;;16.24;71.33;102017.22;5050764;28;20119;-80
2022/05/17 06:46:39;;;;;;;12.25;5.32;;;;;;;16.28;70.92;102016.25;5017073;28;20112;-80
2022/05/17 06:49:04;;;;;;;19.52;5.93;;;;;;;16.29;71.02;102016.19;5033088;28;20109;-80
2022/05/17 06:51:31;;;;;;;11.85;5.78;;;;;;;16.27;72.52;102018.03;5032562;28;20147;-81
2022/05/17 06:54:02;;;;;;;14.93;5.85;;;;;;;16.26;73.82;102028.75;5016022;28;20056;-82
2022/05/17 06:56:27;;;;;;;14.60;5.95;;;;;;;16.30;75.10;102028.66;5001155;28;20068;-82
2022/05/17 06:58:55;;;;;;;15.70;5.45;;;;;;;16.36;75.17;102027.59;5038785;28;20022;-82
2022/05/17 07:01:21;;;;;;;19.13;6.55;;;;;;;16.33;74.80;102027.69;5028048;28;20090;-82
2022/05/17 07:03:46;;;;;;;16.55;6.47;;;;;;;16.32;75.51;102034.84;5050836;28;20040;-81
2022/05/17 07:06:14;;;;;;;15.02;6.45;;;;;;;16.27;75.26;102034.06;5013613;28;20045;-81
2022/05/17 07:08:43;;;;;;;16.23;6.00;;;;;;;16.31;74.28;102030.38;5013750;28;20041;-82
2022/05/17 07:14:05;;;;;;;16.52;6.53;;;;;;;16.37;75.46;102031.13;5032116;28;20100;-82
2022/05/17 07:16:33;;;;;;;16.20;6.05;;;;;;;16.42;76.17;102040.81;5023501;28;20029;-80
2022/05/17 07:18:59;;;;;;;13.82;6.75;;;;;;;16.46;77.01;102037.13;5020992;28;20052;-79
2022/05/17 07:21:24;;;;;;;18.83;6.68;;;;;;;16.50;75.92;102046.81;5037640;28;20393;-80
2022/05/17 07:23:51;;;;;;;13.98;6.60;;;;;;;16.54;75.53;102050.28;5037767;28;20041;-80
2022/05/17 07:26:19;;;;;;;17.38;6.25;;;;;;;16.58;76.22;102045.72;5021336;28;20113;-80
2022/05/17 07:29:26;;;;;;;20.75;6.70;;;;;;;16.55;77.36;102034.19;5036773;28;20037;-81
2022/05/17 07:32:51;;;;;;;26.23;7.53;;;;;;;16.55;76.91;102031.53;5012070;28;20046;-81
2022/05/17 07:39:49;;;;;;;20.05;6.85;;;;;;;16.49;77.34;102020.09;4878118;29;20045;-81
2022/05/17 07:42:15;;;;;;;24.67;7.22;;;;;;;16.51;78.42;102016.47;4883035;29;20064;-78
2022/05/17 07:44:41;;;;;;;20.95;7.78;;;;;;;16.58;78.63;102027.88;4943126;29;20070;-79
2022/05/17 07:47:07;;;;;;;21.90;7.47;;;;;;;16.61;79.25;102030.47;4995079;28;20096;-80
2022/05/17 07:49:35;;;;;;;18.92;6.50;;;;;;;16.67;78.58;102032.13;5011227;28;20501;-81
2022/05/17 07:52:02;;;;;;;28.23;7.97;;;;;;;16.66;79.15;102035.69;4996252;28;20050;-81
2022/05/17 07:54:28;;;;;;;17.80;8.35;;;;;;;16.68;78.91;102034.72;5027533;28;20061;-81
2022/05/17 07:56:53;;;;;;;17.73;8.48;;;;;;;16.76;80.15;102040.75;4999483;28;20465;-82
2022/05/17 07:59:19;;;;;;;19.92;8.18;;;;;;;16.89;81.15;102046.66;5022275;28;20048;-82
2022/05/17 08:01:45;;;;;;;23.55;8.05;;;;;;;16.90;79.05;102044.84;5017049;28;20033;-82
2022/05/17 08:04:10;;;;;;;27.40;8.77;;;;;;;16.96;79.05;102045.56;5019962;28;20094;-82
2022/05/17 08:06:36;;;;;;;17.77;7.40;;;;;;;17.04;79.36;102047.13;5020632;28;20466;-82
2022/05/17 08:09:03;;;;;;;16.80;7.40;;;;;;;17.14;75.27;102052.16;5054722;28;20037;-82
2022/05/17 08:11:28;;;;;;;18.52;8.00;;;;;;;17.24;78.11;102054.56;5019999;28;20044;-82
2022/05/17 08:13:54;;;;;;;20.02;8.15;;;;;;;17.31;76.57;102057.00;5036430;28;20033;-82
2022/05/17 08:16:20;;;;;;;16.75;7.75;;;;;;;17.36;76.58;102056.88;5024316;28;20044;-82
2022/05/17 08:18:45;;;;;;;21.50;7.82;;;;;;;17.41;76.33;102055.78;5056571;28;20059;-81
2022/05/17 08:21:11;;;;;;;16.80;8.07;;;;;;;17.46;76.38;102054.75;5023442;28;20467;-81
2022/05/17 08:23:37;;;;;;;28.45;7.50;;;;;;;17.42;75.43;102057.53;5055958;28;20021;-81
2022/05/17 08:28:47;;;;;;;18.05;6.18;;;;;;;17.41;73.06;102068.31;5041993;28;20045;-82
2022/05/17 08:31:13;;;;;;;18.95;6.47;;;;;;;17.37;73.54;102062.16;5038983;28;20040;-81
2022/05/17 08:33:38;;;;;;;16.65;6.00;;;;;;;17.34;73.07;102064.94;5039515;28;20105;-82
2022/05/17 08:36:08;;;;;;;13.65;6.07;;;;;;;17.35;73.24;102060.44;5056086;28;20056;-82
2022/05/17 08:38:55;;;;;;;17.50;5.32;;;;;;;17.36;72.46;102064.91;5055734;28;20037;-82
2022/05/17 08:41:42;;;;;;;22.65;6.50;;;;;;;17.48;73.83;102063.63;5038395;28;20453;-82
2022/05/17 08:44:19;;;;;;;16.05;5.15;;;;;;;17.50;73.56;102056.41;5055090;28;20050;-82
2022/05/17 08:47:21;;;;;;;17.27;4.95;;;;;;;17.57;72.66;102056.16;5055364;28;20028;-82
2022/05/17 08:50:08;;;;;;;13.50;5.85;;;;;;;17.60;73.15;102047.16;5041500;28;20041;-82
2022/05/17 08:52:38;;;;;;;21.25;6.30;;;;;;;17.62;74.13;102038.16;5038490;28;20400;-82
2022/05/17 08:55:16;;;;;;;17.40;6.45;;;;;;;17.69;74.03;102029.94;5038620;28;20040;-82
2022/05/17 08:57:47;;;;;;;13.38;5.93;;;;;;;17.81;72.60;102029.56;5071359;28;20052;-82
2022/05/17 09:00:31;;;;;;;21.43;6.90;;;;;;;17.93;72.50;102022.91;5046320;28;20040;-82
2022/05/17 09:03:03;;;;;;;18.30;6.55;;;;;;;18.04;72.32;102023.41;5035392;28;20359;-83
2022/05/17 09:05:57;;;;;;;11.82;5.45;;;;;;;18.15;70.03;102020.34;5050392;28;20029;-84
2022/05/17 09:08:35;;;;;;;18.50;6.93;;;;;;;18.30;72.52;102030.56;5038160;28;20100;-83
2022/05/17 09:11:26;;;;;;;17.17;6.45;;;;;;;18.38;71.21;102020.44;5054652;28;20111;-83
2022/05/17 09:13:54;;;;;;;17.50;6.28;;;;;;;18.50;70.42;102020.94;5053955;28;20033;-83
2022/05/17 09:16:23;;;;;;;12.07;5.47;;;;;;;18.57;68.98;102022.44;5061959;28;20044;-83
2022/05/17 09:18:50;;;;;;;14.07;5.15;;;;;;;18.66;67.69;102024.78;5055226;28;20388;-82
2022/05/17 09:21:36;;;;;;;14.35;4.47;;;;;;;18.76;67.15;102028.91;5055294;28;20044;-82
2022/05/17 09:24:10;;;;;;;15.05;4.75;;;;;;;18.81;67.48;102032.28;5055426;28;20197;-83
2022/05/17 09:26:37;;;;;;;18.80;5.35;;;;;;;18.85;66.38;102028.56;5072695;28;20473;-82
2022/05/17 09:29:45;;;;;;;11.77;3.97;;;;;;;18.99;65.80;102021.78;5073044;28;20546;-82
2022/05/17 09:32:13;;;;;;;10.85;3.63;;;;;;;19.15;65.65;102022.09;5052059;28;20037;-82
2022/05/17 09:34:43;;;;;;;14.13;3.53;;;;;;;19.30;64.86;102018.81;5035520;28;20048;-82
2022/05/17 09:37:14;;;;;;;9.25;3.13;;;;;;;19.39;63.71;102015.75;5040188;28;20376;-82
2022/05/17 09:39:45;;;;;;;10.60;2.53;;;;;;;19.47;61.36;102020.81;5038030;28;20028;-82
2022/05/17 09:42:20;;;;;;;10.15;3.35;;;;;;;19.65;62.95;102017.38;5037602;28;20105;-82
2022/05/17 09:44:49;;;;;;;9.85;2.90;;;;;;;19.94;61.42;102013.50;5054398;28;20049;-82
2022/05/17 09:47:29;;;;;;;10.38;3.45;;;;;;;20.14;60.93;102022.53;5021257;28;20025;-82
2022/05/17 09:52:45;;;;;;;12.30;3.85;;;;;;;20.83;59.05;102009.56;5054395;28;20115;-81
2022/05/17 09:55:21;;;;;;;12.55;3.85;;;;;;;21.21;58.06;102011.41;5006025;28;20498;-81
2022/05/17 09:58:09;;;;;;;14.10;4.15;;;;;;;21.73;60.53;102018.78;5052347;28;20039;-81
2022/05/17 10:00:44;;;;;;;13.35;4.30;;;;;;;21.90;57.48;102008.88;5034665;28;20468;-82
2022/05/17 10:03:12;;;;;;;11.77;3.88;;;;;;;21.95;55.42;102005.09;5033838;28;20067;-81
2022/05/17 10:05:41;;;;;;;13.15;3.63;;;;;;;22.11;55.33;101995.28;5017414;28;20055;-81
2022/05/17 10:08:13;;;;;;;10.13;3.90;;;;;;;22.19;54.91;102001.13;5033984;28;20132;-81
2022/05/17 10:10:44;;;;;;;13.55;4.15;;;;;;;22.20;53.81;101992.09;5017350;28;20044;-81
2022/05/17 10:13:33;;;;;;;11.02;3.58;;;;;;;22.23;55.12;101988.38;5034246;28;20128;-81
2022/05/17 10:16:07;;;;;;;9.30;3.70;;;;;;;22.35;54.86;101984.16;5020512;28;20029;-81
2022/05/17 10:18:38;;;;;;;12.48;4.07;;;;;;;22.37;52.66;101983.13;5033362;28;20503;-81
2022/05/17 10:21:17;;;;;;;11.30;4.20;;;;;;;22.30;53.22;101970.91;5039944;28;20041;-81
2022/05/17 10:24:09;;;;;;;10.70;3.80;;;;;;;22.46;53.56;101981.78;5031725;28;20045;-81
2022/05/17 10:26:46;;;;;;;6.75;3.60;;;;;;;22.67;53.20;101977.00;4991117;28;20054;-82
2022/05/17 10:29:25;;;;;;;11.50;4.15;;;;;;;22.84;52.12;101982.34;5031762;28;20041;-82
2022/05/17 10:31:56;;;;;;;16.77;4.30;;;;;;;22.88;50.76;101973.16;5032294;28;20047;-81
2022/05/17 10:34:32;;;;;;;10.20;3.92;;;;;;;22.81;52.22;101971.72;5027756;28;20048;-82
2022/05/17 10:37:05;;;;;;;12.95;3.65;;;;;;;22.67;50.50;101979.72;5031518;28;20039;-81
2022/05/17 10:39:51;;;;;;;10.75;4.22;;;;;;;22.49;52.19;101978.91;5014143;28;20128;-82
2022/05/17 10:42:17;;;;;;;12.23;3.90;;;;;;;22.43;52.39;101972.00;5013765;28;20140;-81
2022/05/17 10:44:53;;;;;;;11.85;3.72;;;;;;;22.49;52.46;101973.50;5030357;28;20143;-81
2022/05/17 10:47:37;;;;;;;11.90;4.55;;;;;;;22.56;52.13;101977.63;5031451;28;20041;-82
2022/05/17 10:50:25;;;;;;;10.07;3.10;;;;;;;22.53;51.13;101972.38;5029493;28;20113;-81
2022/05/17 10:53:28;;;;;;;15.87;4.17;;;;;;;22.46;50.14;101979.06;5013505;28;20124;-81
2022/05/17 10:56:03;;;;;;;;;;;;;;;22.51;50.98;101971.59;4997544;28;20489;-82
2022/05/17 10:58:44;;;;;;;12.10;4.10;;;;;;;22.37;50.13;101975.03;5029987;28;19920;-81
2022/05/17 11:01:28;;;;;;;32.10;4.82;;;;;;;22.52;51.23;101971.50;5046510;28;20368;-81
2022/05/17 11:04:29;;;;;;;15.45;4.80;;;;;;;22.74;51.45;101970.31;5030055;28;20536;-81
2022/05/17 11:07:18;;;;;;;16.40;4.95;;;;;;;23.05;50.90;101968.66;5030294;28;20031;-82
2022/05/17 11:10:04;;;;;;;20.98;5.53;;;;;;;23.23;49.21;101966.75;5040990;28;20033;-81
2022/05/17 11:12:37;;;;;;;17.50;5.22;;;;;;;23.42;49.22;101961.13;5049185;28;20060;-81
2022/05/17 11:15:09;;;;;;;12.38;5.10;;;;;;;23.65;49.06;101946.28;5041908;28;20478;-81
2022/05/17 11:17:50;;;;;;;12.02;4.97;;;;;;;23.82;49.50;101951.56;5047413;28;20147;-81
2022/05/17 11:20:47;;;;;;;18.52;5.40;;;;;;;24.15;49.20;101940.50;5049204;28;20025;-81
2022/05/17 11:23:22;;;;;;;11.65;5.45;;;;;;;24.18;47.27;101936.75;5049422;28;20029;-80
2022/05/17 11:26:25;;;;;;;11.60;6.07;;;;;;;24.50;47.94;101932.06;5049289;28;20098;-80
2022/05/17 11:29:07;;;;;;;12.82;6.55;;;;;;;24.74;47.97;101926.91;5049770;28;20368;-81
2022/05/17 11:32:00;;;;;;;15.38;6.25;;;;;;;24.82;47.22;101926.41;5048599;28;20052;-81
2022/05/17 11:34:35;;;;;;;19.02;7.40;;;;;;;24.93;46.87;101914.91;5030681;28;20033;-81
2022/05/17 11:37:05;;;;;;;12.50;6.60;;;;;;;24.99;46.55;101917.19;5017811;28;20044;-82
2022/05/17 11:39:31;;;;;;;17.45;7.75;;;;;;;25.09;47.05;101918.31;5066170;28;20041;-83
2022/05/17 11:42:06;;;;;;;20.98;6.00;;;;;;;25.47;46.42;101910.38;5049493;28;20381;-81
2022/05/17 11:44:44;;;;;;;25.08;7.20;;;;;;;25.65;45.14;101905.53;5065948;28;20069;-83
2022/05/17 11:47:33;;;;;;;13.10;6.00;;;;;;;25.99;46.08;101907.75;5048016;28;20106;-81
2022/05/17 11:50:18;;;;;;;12.07;6.38;;;;;;;26.24;45.57;101904.22;5050775;28;20124;-81